sensor_id;sensor_type;location;lat;lon;timestamp;P1;durP1;ratioP1;P2;durP2;ratioP2
47575;SDS011;33304;52.456;13.328;2022-07-23T00:01:41;4.00;;;3.37;;
47575;SDS011;33304;52.456;13.328;2022-07-23T00:04:08;4.80;;;3.97;;
47575;SDS011;33304;52.456;13.328;2022-07-23T00:06:35;4.40;;;3.93;;
47575;SDS011;33304;52.456;13.328;2022-07-23T00:09:03;6.80;;;4.23;;
47575;SDS011;33304;52.456;13.328;2022-07-23T00:11:30;6.17;;;3.97;;
47575;SDS011;33304;52.456;13.328;2022-07-23T00:13:57;4.20;;;3.80;;
47575;SDS011;33304;52.456;13.328;2022-07-23T00:16:24;7.00;;;4.40;;
47575;SDS011;33304;52.456;13.328;2022-07-23T00:18:52;7.57;;;3.90;;
47575;SDS011;33304;52.456;13.328;2022-07-23T00:21:20;8.37;;;4.17;;
47575;SDS011;33304;52.456;13.328;2022-07-23T00:23:47;5.17;;;3.80;;
47575;SDS011;33304;52.456;13.328;2022-07-23T00:26:14;6.73;;;4.47;;
47575;SDS011;33304;52.456;13.328;2022-07-23T00:28:41;7.30;;;4.60;;
47575;SDS011;33304;52.456;13.328;2022-07-23T00:31:09;6.53;;;3.83;;
47575;SDS011;33304;52.456;13.328;2022-07-23T00:33:36;9.60;;;4.23;;
47575;SDS011;33304;52.456;13.328;2022-07-23T00:36:05;7.10;;;4.30;;
47575;SDS011;33304;52.456;13.328;2022-07-23T00:38:33;5.17;;;4.10;;
47575;SDS011;33304;52.456;13.328;2022-07-23T00:41:00;7.83;;;4.87;;
47575;SDS011;33304;52.456;13.328;2022-07-23T00:43:27;4.43;;;3.70;;
47575;SDS011;33304;52.456;13.328;2022-07-23T00:45:54;4.57;;;3.50;;
47575;SDS011;33304;52.456;13.328;2022-07-23T00:48:21;6.10;;;4.23;;
47575;SDS011;33304;52.456;13.328;2022-07-23T00:50:49;4.40;;;4.00;;
47575;SDS011;33304;52.456;13.328;2022-07-23T00:53:17;6.30;;;3.97;;
47575;SDS011;33304;52.456;13.328;2022-07-23T00:55:46;6.17;;;4.23;;
47575;SDS011;33304;52.456;13.328;2022-07-23T00:58:14;6.47;;;4.23;;
47575;SDS011;33304;52.456;13.328;2022-07-23T01:00:43;5.00;;;4.50;;
47575;SDS011;33304;52.456;13.328;2022-07-23T01:03:11;6.87;;;4.70;;
47575;SDS011;33304;52.456;13.328;2022-07-23T01:05:38;6.37;;;4.50;;
47575;SDS011;33304;52.456;13.328;2022-07-23T01:08:06;4.43;;;4.00;;
47575;SDS011;33304;52.456;13.328;2022-07-23T01:10:34;4.80;;;4.17;;
47575;SDS011;33304;52.456;13.328;2022-07-23T01:13:03;8.37;;;4.30;;
47575;SDS011;33304;52.456;13.328;2022-07-23T01:15:32;4.10;;;3.70;;
47575;SDS011;33304;52.456;13.328;2022-07-23T01:18:00;4.67;;;4.13;;
47575;SDS011;33304;52.456;13.328;2022-07-23T01:20:29;7.03;;;3.77;;
47575;SDS011;33304;52.456;13.328;2022-07-23T01:22:58;4.93;;;4.37;;
47575;SDS011;33304;52.456;13.328;2022-07-23T01:25:25;4.53;;;4.10;;
47575;SDS011;33304;52.456;13.328;2022-07-23T01:27:59;5.33;;;4.30;;
47575;SDS011;33304;52.456;13.328;2022-07-23T01:30:27;6.60;;;4.43;;
47575;SDS011;33304;52.456;13.328;2022-07-23T01:32:55;7.10;;;4.40;;
47575;SDS011;33304;52.456;13.328;2022-07-23T01:35:23;5.13;;;3.93;;
47575;SDS011;33304;52.456;13.328;2022-07-23T01:37:52;6.30;;;4.47;;
47575;SDS011;33304;52.456;13.328;2022-07-23T01:40:22;4.13;;;3.73;;
47575;SDS011;33304;52.456;13.328;2022-07-23T01:42:50;4.70;;;4.03;;
47575;SDS011;33304;52.456;13.328;2022-07-23T01:45:18;7.33;;;4.03;;
47575;SDS011;33304;52.456;13.328;2022-07-23T01:47:49;7.63;;;4.87;;
47575;SDS011;33304;52.456;13.328;2022-07-23T01:50:16;7.27;;;4.20;;
47575;SDS011;33304;52.456;13.328;2022-07-23T01:53:07;4.97;;;4.27;;
47575;SDS011;33304;52.456;13.328;2022-07-23T01:55:37;7.40;;;4.40;;
47575;SDS011;33304;52.456;13.328;2022-07-23T01:58:05;6.80;;;4.40;;
47575;SDS011;33304;52.456;13.328;2022-07-23T02:00:32;6.43;;;4.40;;
47575;SDS011;33304;52.456;13.328;2022-07-23T02:02:59;7.03;;;4.53;;
47575;SDS011;33304;52.456;13.328;2022-07-23T02:05:27;4.90;;;4.20;;
47575;SDS011;33304;52.456;13.328;2022-07-23T02:07:55;5.63;;;3.90;;
47575;SDS011;33304;52.456;13.328;2022-07-23T02:10:23;7.87;;;3.90;;
47575;SDS011;33304;52.456;13.328;2022-07-23T02:12:51;5.63;;;4.20;;
47575;SDS011;33304;52.456;13.328;2022-07-23T02:15:19;6.47;;;4.13;;
47575;SDS011;33304;52.456;13.328;2022-07-23T02:17:46;5.77;;;4.23;;
47575;SDS011;33304;52.456;13.328;2022-07-23T02:20:13;5.23;;;3.83;;
47575;SDS011;33304;52.456;13.328;2022-07-23T02:22:43;5.97;;;4.13;;
47575;SDS011;33304;52.456;13.328;2022-07-23T02:25:10;6.57;;;4.60;;
47575;SDS011;33304;52.456;13.328;2022-07-23T02:27:37;4.70;;;3.67;;
47575;SDS011;33304;52.456;13.328;2022-07-23T02:30:07;5.00;;;4.20;;
47575;SDS011;33304;52.456;13.328;2022-07-23T02:32:35;5.37;;;3.63;;
47575;SDS011;33304;52.456;13.328;2022-07-23T02:35:03;8.60;;;4.13;;
47575;SDS011;33304;52.456;13.328;2022-07-23T02:37:31;5.20;;;3.83;;
47575;SDS011;33304;52.456;13.328;2022-07-23T02:39:58;6.53;;;4.00;;
47575;SDS011;33304;52.456;13.328;2022-07-23T02:42:25;6.77;;;4.33;;
47575;SDS011;33304;52.456;13.328;2022-07-23T02:44:53;5.87;;;4.07;;
47575;SDS011;33304;52.456;13.328;2022-07-23T02:47:21;8.17;;;4.30;;
47575;SDS011;33304;52.456;13.328;2022-07-23T02:49:49;4.63;;;3.70;;
47575;SDS011;33304;52.456;13.328;2022-07-23T02:52:16;4.87;;;3.50;;
47575;SDS011;33304;52.456;13.328;2022-07-23T02:54:44;5.97;;;3.60;;
47575;SDS011;33304;52.456;13.328;2022-07-23T02:57:14;6.10;;;3.83;;
47575;SDS011;33304;52.456;13.328;2022-07-23T02:59:42;7.93;;;4.27;;
47575;SDS011;33304;52.456;13.328;2022-07-23T03:02:09;6.80;;;3.97;;
47575;SDS011;33304;52.456;13.328;2022-07-23T03:04:38;5.07;;;3.50;;
47575;SDS011;33304;52.456;13.328;2022-07-23T03:07:07;5.60;;;4.10;;
47575;SDS011;33304;52.456;13.328;2022-07-23T03:09:35;7.27;;;4.27;;
47575;SDS011;33304;52.456;13.328;2022-07-23T03:12:02;4.63;;;3.70;;
47575;SDS011;33304;52.456;13.328;2022-07-23T03:14:30;7.37;;;4.03;;
47575;SDS011;33304;52.456;13.328;2022-07-23T03:16:57;4.67;;;3.73;;
47575;SDS011;33304;52.456;13.328;2022-07-23T03:19:25;6.90;;;3.90;;
47575;SDS011;33304;52.456;13.328;2022-07-23T03:21:54;6.07;;;4.13;;
47575;SDS011;33304;52.456;13.328;2022-07-23T03:24:21;6.13;;;3.83;;
47575;SDS011;33304;52.456;13.328;2022-07-23T03:26:49;6.83;;;3.50;;
47575;SDS011;33304;52.456;13.328;2022-07-23T03:29:17;8.13;;;4.47;;
47575;SDS011;33304;52.456;13.328;2022-07-23T03:31:44;6.80;;;4.47;;
47575;SDS011;33304;52.456;13.328;2022-07-23T03:34:11;4.93;;;3.53;;
47575;SDS011;33304;52.456;13.328;2022-07-23T03:36:38;8.03;;;3.70;;
47575;SDS011;33304;52.456;13.328;2022-07-23T03:39:07;5.20;;;4.30;;
47575;SDS011;33304;52.456;13.328;2022-07-23T03:41:35;7.97;;;4.30;;
47575;SDS011;33304;52.456;13.328;2022-07-23T03:44:02;5.63;;;4.33;;
47575;SDS011;33304;52.456;13.328;2022-07-23T03:46:30;7.47;;;3.60;;
47575;SDS011;33304;52.456;13.328;2022-07-23T03:48:57;6.90;;;3.90;;
47575;SDS011;33304;52.456;13.328;2022-07-23T03:51:24;7.67;;;3.50;;
47575;SDS011;33304;52.456;13.328;2022-07-23T03:53:51;7.00;;;3.07;;
47575;SDS011;33304;52.456;13.328;2022-07-23T03:56:21;5.80;;;3.07;;
47575;SDS011;33304;52.456;13.328;2022-07-23T03:58:48;10.53;;;3.07;;
47575;SDS011;33304;52.456;13.328;2022-07-23T04:01:16;6.77;;;3.10;;
47575;SDS011;33304;52.456;13.328;2022-07-23T04:03:43;8.00;;;3.00;;
47575;SDS011;33304;52.456;13.328;2022-07-23T04:06:12;3.60;;;2.37;;
47575;SDS011;33304;52.456;13.328;2022-07-23T04:08:39;4.87;;;2.47;;
47575;SDS011;33304;52.456;13.328;2022-07-23T04:11:06;4.53;;;2.30;;
47575;SDS011;33304;52.456;13.328;2022-07-23T04:13:34;5.63;;;2.70;;
47575;SDS011;33304;52.456;13.328;2022-07-23T04:16:03;2.80;;;2.40;;
47575;SDS011;33304;52.456;13.328;2022-07-23T04:18:31;4.40;;;2.23;;
47575;SDS011;33304;52.456;13.328;2022-07-23T04:21:08;3.63;;;2.23;;
47575;SDS011;33304;52.456;13.328;2022-07-23T04:23:36;4.70;;;2.10;;
47575;SDS011;33304;52.456;13.328;2022-07-23T04:26:05;5.87;;;1.80;;
47575;SDS011;33304;52.456;13.328;2022-07-23T04:28:32;3.63;;;2.03;;
47575;SDS011;33304;52.456;13.328;2022-07-23T04:31:02;6.20;;;2.07;;
47575;SDS011;33304;52.456;13.328;2022-07-23T04:33:30;5.50;;;2.37;;
47575;SDS011;33304;52.456;13.328;2022-07-23T04:36:00;4.40;;;1.83;;
47575;SDS011;33304;52.456;13.328;2022-07-23T04:38:27;4.77;;;2.00;;
47575;SDS011;33304;52.456;13.328;2022-07-23T04:40:58;4.13;;;1.80;;
47575;SDS011;33304;52.456;13.328;2022-07-23T04:43:26;4.87;;;1.73;;
47575;SDS011;33304;52.456;13.328;2022-07-23T04:45:54;5.20;;;1.90;;
47575;SDS011;33304;52.456;13.328;2022-07-23T04:48:22;4.10;;;2.40;;
47575;SDS011;33304;52.456;13.328;2022-07-23T04:50:57;4.47;;;2.00;;
47575;SDS011;33304;52.456;13.328;2022-07-23T04:53:27;3.47;;;1.73;;
47575;SDS011;33304;52.456;13.328;2022-07-23T04:55:59;4.23;;;2.23;;
47575;SDS011;33304;52.456;13.328;2022-07-23T04:58:26;2.77;;;2.10;;
47575;SDS011;33304;52.456;13.328;2022-07-23T05:00:53;6.57;;;2.83;;
47575;SDS011;33304;52.456;13.328;2022-07-23T05:03:24;8.53;;;2.70;;
47575;SDS011;33304;52.456;13.328;2022-07-23T05:05:52;6.60;;;2.97;;
47575;SDS011;33304;52.456;13.328;2022-07-23T05:08:20;3.83;;;2.87;;
47575;SDS011;33304;52.456;13.328;2022-07-23T05:10:53;6.50;;;2.10;;
47575;SDS011;33304;52.456;13.328;2022-07-23T05:13:21;3.27;;;2.47;;
47575;SDS011;33304;52.456;13.328;2022-07-23T05:15:50;6.57;;;3.27;;
47575;SDS011;33304;52.456;13.328;2022-07-23T05:18:17;5.00;;;2.40;;
47575;SDS011;33304;52.456;13.328;2022-07-23T05:20:46;5.97;;;2.77;;
47575;SDS011;33304;52.456;13.328;2022-07-23T05:23:17;6.57;;;2.73;;
47575;SDS011;33304;52.456;13.328;2022-07-23T05:25:44;4.13;;;2.40;;
47575;SDS011;33304;52.456;13.328;2022-07-23T05:28:11;5.57;;;2.80;;
47575;SDS011;33304;52.456;13.328;2022-07-23T05:30:38;8.20;;;2.77;;
47575;SDS011;33304;52.456;13.328;2022-07-23T05:33:08;4.83;;;2.90;;
47575;SDS011;33304;52.456;13.328;2022-07-23T05:35:36;6.43;;;2.77;;
47575;SDS011;33304;52.456;13.328;2022-07-23T05:38:27;6.30;;;2.93;;
47575;SDS011;33304;52.456;13.328;2022-07-23T05:40:57;7.77;;;2.83;;
47575;SDS011;33304;52.456;13.328;2022-07-23T05:43:25;5.63;;;3.27;;
47575;SDS011;33304;52.456;13.328;2022-07-23T05:45:53;5.30;;;2.67;;
47575;SDS011;33304;52.456;13.328;2022-07-23T05:48:21;7.93;;;2.80;;
47575;SDS011;33304;52.456;13.328;2022-07-23T05:51:00;8.20;;;3.33;;
47575;SDS011;33304;52.456;13.328;2022-07-23T05:53:32;6.03;;;2.87;;
47575;SDS011;33304;52.456;13.328;2022-07-23T05:56:09;5.03;;;2.60;;
47575;SDS011;33304;52.456;13.328;2022-07-23T05:58:37;4.37;;;2.63;;
47575;SDS011;33304;52.456;13.328;2022-07-23T06:01:04;8.60;;;2.47;;
47575;SDS011;33304;52.456;13.328;2022-07-23T06:03:39;3.77;;;2.70;;
47575;SDS011;33304;52.456;13.328;2022-07-23T06:06:07;5.80;;;3.00;;
47575;SDS011;33304;52.456;13.328;2022-07-23T06:08:36;4.40;;;2.50;;
47575;SDS011;33304;52.456;13.328;2022-07-23T06:11:04;8.63;;;3.37;;
47575;SDS011;33304;52.456;13.328;2022-07-23T06:13:31;11.17;;;3.53;;
47575;SDS011;33304;52.456;13.328;2022-07-23T06:15:59;4.97;;;3.17;;
47575;SDS011;33304;52.456;13.328;2022-07-23T06:18:26;6.33;;;3.53;;
47575;SDS011;33304;52.456;13.328;2022-07-23T06:20:53;4.70;;;3.00;;
47575;SDS011;33304;52.456;13.328;2022-07-23T06:23:21;5.47;;;3.23;;
47575;SDS011;33304;52.456;13.328;2022-07-23T06:25:49;8.87;;;3.47;;
47575;SDS011;33304;52.456;13.328;2022-07-23T06:28:16;5.60;;;3.00;;
47575;SDS011;33304;52.456;13.328;2022-07-23T06:30:43;5.63;;;2.97;;
47575;SDS011;33304;52.456;13.328;2022-07-23T06:33:10;8.27;;;3.67;;
47575;SDS011;33304;52.456;13.328;2022-07-23T06:35:38;6.63;;;3.30;;
47575;SDS011;33304;52.456;13.328;2022-07-23T06:38:07;7.40;;;3.67;;
47575;SDS011;33304;52.456;13.328;2022-07-23T06:40:34;4.53;;;3.30;;
47575;SDS011;33304;52.456;13.328;2022-07-23T06:43:02;5.90;;;3.87;;
47575;SDS011;33304;52.456;13.328;2022-07-23T06:45:30;6.07;;;3.80;;
47575;SDS011;33304;52.456;13.328;2022-07-23T06:47:58;5.20;;;2.83;;
47575;SDS011;33304;52.456;13.328;2022-07-23T06:50:27;5.37;;;3.70;;
47575;SDS011;33304;52.456;13.328;2022-07-23T06:52:55;5.93;;;3.37;;
47575;SDS011;33304;52.456;13.328;2022-07-23T06:55:22;11.20;;;4.67;;
47575;SDS011;33304;52.456;13.328;2022-07-23T06:57:49;4.57;;;3.20;;
47575;SDS011;33304;52.456;13.328;2022-07-23T07:00:18;6.63;;;4.03;;
47575;SDS011;33304;52.456;13.328;2022-07-23T07:02:45;5.43;;;3.47;;
47575;SDS011;33304;52.456;13.328;2022-07-23T07:05:12;6.97;;;3.30;;
47575;SDS011;33304;52.456;13.328;2022-07-23T07:07:39;6.07;;;3.13;;
47575;SDS011;33304;52.456;13.328;2022-07-23T07:10:07;7.90;;;3.70;;
47575;SDS011;33304;52.456;13.328;2022-07-23T07:12:34;7.13;;;3.77;;
47575;SDS011;33304;52.456;13.328;2022-07-23T07:15:02;9.10;;;3.87;;
47575;SDS011;33304;52.456;13.328;2022-07-23T07:17:30;7.13;;;3.27;;
47575;SDS011;33304;52.456;13.328;2022-07-23T07:19:58;8.73;;;3.83;;
47575;SDS011;33304;52.456;13.328;2022-07-23T07:22:25;6.80;;;3.30;;
47575;SDS011;33304;52.456;13.328;2022-07-23T07:24:52;3.50;;;2.80;;
47575;SDS011;33304;52.456;13.328;2022-07-23T07:27:19;5.33;;;3.20;;
47575;SDS011;33304;52.456;13.328;2022-07-23T07:29:46;6.30;;;3.80;;
47575;SDS011;33304;52.456;13.328;2022-07-23T07:32:13;7.10;;;4.07;;
47575;SDS011;33304;52.456;13.328;2022-07-23T07:34:42;4.83;;;3.43;;
47575;SDS011;33304;52.456;13.328;2022-07-23T07:37:09;4.03;;;2.83;;
47575;SDS011;33304;52.456;13.328;2022-07-23T07:39:36;6.57;;;3.37;;
47575;SDS011;33304;52.456;13.328;2022-07-23T07:42:04;4.80;;;3.73;;
47575;SDS011;33304;52.456;13.328;2022-07-23T07:44:31;8.57;;;3.97;;
47575;SDS011;33304;52.456;13.328;2022-07-23T07:46:58;5.93;;;3.70;;
47575;SDS011;33304;52.456;13.328;2022-07-23T07:49:25;7.20;;;3.87;;
47575;SDS011;33304;52.456;13.328;2022-07-23T07:51:54;7.83;;;4.10;;
47575;SDS011;33304;52.456;13.328;2022-07-23T07:54:21;7.23;;;3.97;;
47575;SDS011;33304;52.456;13.328;2022-07-23T07:56:48;6.10;;;4.00;;
47575;SDS011;33304;52.456;13.328;2022-07-23T07:59:15;7.47;;;4.07;;
47575;SDS011;33304;52.456;13.328;2022-07-23T08:01:42;5.83;;;3.83;;
47575;SDS011;33304;52.456;13.328;2022-07-23T08:04:10;7.67;;;4.47;;
47575;SDS011;33304;52.456;13.328;2022-07-23T08:06:37;4.80;;;3.67;;
47575;SDS011;33304;52.456;13.328;2022-07-23T08:09:05;5.40;;;3.63;;
47575;SDS011;33304;52.456;13.328;2022-07-23T08:11:33;7.47;;;4.80;;
47575;SDS011;33304;52.456;13.328;2022-07-23T08:14:00;9.70;;;4.23;;
47575;SDS011;33304;52.456;13.328;2022-07-23T08:16:27;8.67;;;4.70;;
47575;SDS011;33304;52.456;13.328;2022-07-23T08:18:54;8.87;;;4.60;;
47575;SDS011;33304;52.456;13.328;2022-07-23T08:21:21;9.40;;;4.83;;
47575;SDS011;33304;52.456;13.328;2022-07-23T08:23:49;6.70;;;4.50;;
47575;SDS011;33304;52.456;13.328;2022-07-23T08:26:17;10.63;;;4.43;;
47575;SDS011;33304;52.456;13.328;2022-07-23T08:28:44;5.60;;;3.93;;
47575;SDS011;33304;52.456;13.328;2022-07-23T08:31:11;7.27;;;4.63;;
47575;SDS011;33304;52.456;13.328;2022-07-23T08:33:40;7.20;;;4.30;;
47575;SDS011;33304;52.456;13.328;2022-07-23T08:36:08;7.83;;;3.77;;
47575;SDS011;33304;52.456;13.328;2022-07-23T08:38:35;5.77;;;3.23;;
47575;SDS011;33304;52.456;13.328;2022-07-23T08:41:02;4.80;;;3.10;;
47575;SDS011;33304;52.456;13.328;2022-07-23T08:43:32;6.20;;;3.33;;
47575;SDS011;33304;52.456;13.328;2022-07-23T08:46:01;5.57;;;2.70;;
47575;SDS011;33304;52.456;13.328;2022-07-23T08:48:30;2.77;;;2.33;;
47575;SDS011;33304;52.456;13.328;2022-07-23T08:50:58;11.60;;;2.83;;
47575;SDS011;33304;52.456;13.328;2022-07-23T08:53:26;7.33;;;2.60;;
47575;SDS011;33304;52.456;13.328;2022-07-23T08:55:55;4.33;;;2.53;;
47575;SDS011;33304;52.456;13.328;2022-07-23T08:58:27;6.07;;;2.23;;
47575;SDS011;33304;52.456;13.328;2022-07-23T09:00:56;6.60;;;2.87;;
47575;SDS011;33304;52.456;13.328;2022-07-23T09:03:24;3.87;;;2.37;;
47575;SDS011;33304;52.456;13.328;2022-07-23T09:05:54;6.13;;;2.63;;
47575;SDS011;33304;52.456;13.328;2022-07-23T09:08:23;3.10;;;2.17;;
47575;SDS011;33304;52.456;13.328;2022-07-23T09:10:53;3.67;;;2.23;;
47575;SDS011;33304;52.456;13.328;2022-07-23T09:13:25;3.73;;;1.90;;
47575;SDS011;33304;52.456;13.328;2022-07-23T09:15:57;3.97;;;2.33;;
47575;SDS011;33304;52.456;13.328;2022-07-23T09:18:29;3.53;;;2.57;;
47575;SDS011;33304;52.456;13.328;2022-07-23T09:21:05;3.30;;;1.97;;
47575;SDS011;33304;52.456;13.328;2022-07-23T09:23:44;5.53;;;3.00;;
47575;SDS011;33304;52.456;13.328;2022-07-23T09:26:20;7.60;;;3.00;;
47575;SDS011;33304;52.456;13.328;2022-07-23T09:28:56;5.30;;;2.90;;
47575;SDS011;33304;52.456;13.328;2022-07-23T09:31:31;5.93;;;2.80;;
47575;SDS011;33304;52.456;13.328;2022-07-23T09:34:10;8.33;;;3.67;;
47575;SDS011;33304;52.456;13.328;2022-07-23T09:36:39;4.20;;;2.77;;
47575;SDS011;33304;52.456;13.328;2022-07-23T09:39:07;4.97;;;3.17;;
47575;SDS011;33304;52.456;13.328;2022-07-23T09:41:35;5.77;;;3.43;;
47575;SDS011;33304;52.456;13.328;2022-07-23T09:44:12;6.47;;;2.80;;
47575;SDS011;33304;52.456;13.328;2022-07-23T09:46:43;9.37;;;3.33;;
47575;SDS011;33304;52.456;13.328;2022-07-23T09:49:15;8.23;;;3.53;;
47575;SDS011;33304;52.456;13.328;2022-07-23T09:51:48;4.87;;;3.27;;
47575;SDS011;33304;52.456;13.328;2022-07-23T09:57:04;3.30;;;2.93;;
47575;SDS011;33304;52.456;13.328;2022-07-23T09:59:38;3.47;;;2.53;;
47575;SDS011;33304;52.456;13.328;2022-07-23T10:02:07;5.70;;;2.73;;
47575;SDS011;33304;52.456;13.328;2022-07-23T10:04:49;3.77;;;2.30;;
47575;SDS011;33304;52.456;13.328;2022-07-23T10:07:39;3.70;;;2.70;;
47575;SDS011;33304;52.456;13.328;2022-07-23T10:10:26;6.07;;;2.13;;
47575;SDS011;33304;52.456;13.328;2022-07-23T10:13:29;5.53;;;2.30;;
47575;SDS011;33304;52.456;13.328;2022-07-23T10:16:17;6.40;;;2.87;;
47575;SDS011;33304;52.456;13.328;2022-07-23T10:18:46;5.93;;;2.47;;
47575;SDS011;33304;52.456;13.328;2022-07-23T10:21:16;6.30;;;1.93;;
47575;SDS011;33304;52.456;13.328;2022-07-23T10:23:51;4.93;;;2.53;;
47575;SDS011;33304;52.456;13.328;2022-07-23T10:26:33;3.67;;;2.40;;
47575;SDS011;33304;52.456;13.328;2022-07-23T10:29:08;3.53;;;2.40;;
47575;SDS011;33304;52.456;13.328;2022-07-23T10:31:47;5.63;;;2.30;;
47575;SDS011;33304;52.456;13.328;2022-07-23T10:34:24;6.93;;;2.90;;
47575;SDS011;33304;52.456;13.328;2022-07-23T10:37:11;5.17;;;2.07;;
47575;SDS011;33304;52.456;13.328;2022-07-23T10:39:43;2.43;;;2.17;;
47575;SDS011;33304;52.456;13.328;2022-07-23T10:42:11;5.17;;;2.37;;
47575;SDS011;33304;52.456;13.328;2022-07-23T10:44:40;5.27;;;2.60;;
47575;SDS011;33304;52.456;13.328;2022-07-23T10:47:10;3.23;;;2.30;;
47575;SDS011;33304;52.456;13.328;2022-07-23T10:55:46;3.97;;;2.23;;
47575;SDS011;33304;52.456;13.328;2022-07-23T10:58:18;6.13;;;2.60;;
47575;SDS011;33304;52.456;13.328;2022-07-23T11:00:47;4.50;;;2.40;;
47575;SDS011;33304;52.456;13.328;2022-07-23T11:03:28;3.77;;;2.20;;
47575;SDS011;33304;52.456;13.328;2022-07-23T11:06:03;3.57;;;2.20;;
47575;SDS011;33304;52.456;13.328;2022-07-23T11:08:31;5.63;;;2.10;;
47575;SDS011;33304;52.456;13.328;2022-07-23T11:11:09;5.07;;;2.20;;
47575;SDS011;33304;52.456;13.328;2022-07-23T11:13:38;4.60;;;2.33;;
47575;SDS011;33304;52.456;13.328;2022-07-23T11:16:18;4.40;;;2.20;;
47575;SDS011;33304;52.456;13.328;2022-07-23T11:18:59;2.50;;;1.80;;
47575;SDS011;33304;52.456;13.328;2022-07-23T11:21:50;3.03;;;1.80;;
47575;SDS011;33304;52.456;13.328;2022-07-23T11:24:22;4.73;;;2.10;;
47575;SDS011;33304;52.456;13.328;2022-07-23T11:26:52;2.10;;;1.80;;
47575;SDS011;33304;52.456;13.328;2022-07-23T11:29:43;3.40;;;2.07;;
47575;SDS011;33304;52.456;13.328;2022-07-23T11:35:20;3.63;;;1.87;;
47575;SDS011;33304;52.456;13.328;2022-07-23T11:37:51;3.10;;;1.83;;
47575;SDS011;33304;52.456;13.328;2022-07-23T11:40:24;3.23;;;2.27;;
47575;SDS011;33304;52.456;13.328;2022-07-23T11:42:53;4.30;;;1.77;;
47575;SDS011;33304;52.456;13.328;2022-07-23T11:45:22;5.97;;;2.50;;
47575;SDS011;33304;52.456;13.328;2022-07-23T11:47:50;4.67;;;2.40;;
47575;SDS011;33304;52.456;13.328;2022-07-23T11:50:17;6.27;;;2.40;;
47575;SDS011;33304;52.456;13.328;2022-07-23T11:52:45;3.50;;;2.00;;
47575;SDS011;33304;52.456;13.328;2022-07-23T11:55:13;3.15;;;1.90;;
47575;SDS011;33304;52.456;13.328;2022-07-23T11:57:42;4.97;;;1.45;;
47575;SDS011;33304;52.456;13.328;2022-07-23T12:00:10;2.30;;;1.83;;
47575;SDS011;33304;52.456;13.328;2022-07-23T12:02:39;3.33;;;1.87;;
47575;SDS011;33304;52.456;13.328;2022-07-23T12:05:10;2.57;;;2.07;;
47575;SDS011;33304;52.456;13.328;2022-07-23T12:07:40;6.00;;;2.03;;
47575;SDS011;33304;52.456;13.328;2022-07-23T12:10:11;3.17;;;2.20;;
47575;SDS011;33304;52.456;13.328;2022-07-23T12:12:42;2.17;;;1.80;;
47575;SDS011;33304;52.456;13.328;2022-07-23T12:15:11;2.50;;;1.70;;
47575;SDS011;33304;52.456;13.328;2022-07-23T12:17:40;2.47;;;1.88;;
47575;SDS011;33304;52.456;13.328;2022-07-23T12:20:12;3.80;;;1.73;;
47575;SDS011;33304;52.456;13.328;2022-07-23T12:22:41;5.40;;;1.77;;
47575;SDS011;33304;52.456;13.328;2022-07-23T12:25:10;3.30;;;1.60;;
47575;SDS011;33304;52.456;13.328;2022-07-23T12:27:39;2.35;;;1.80;;
47575;SDS011;33304;52.456;13.328;2022-07-23T12:30:16;4.07;;;1.90;;
47575;SDS011;33304;52.456;13.328;2022-07-23T12:32:45;3.73;;;2.50;;
47575;SDS011;33304;52.456;13.328;2022-07-23T12:35:14;3.88;;;2.40;;
47575;SDS011;33304;52.456;13.328;2022-07-23T12:37:43;2.90;;;2.10;;
47575;SDS011;33304;52.456;13.328;2022-07-23T12:40:21;4.57;;;1.95;;
47575;SDS011;33304;52.456;13.328;2022-07-23T12:42:53;1.97;;;1.73;;
47575;SDS011;33304;52.456;13.328;2022-07-23T12:45:21;5.05;;;2.17;;
47575;SDS011;33304;52.456;13.328;2022-07-23T12:47:55;3.38;;;1.90;;
47575;SDS011;33304;52.456;13.328;2022-07-23T12:50:32;5.05;;;2.28;;
47575;SDS011;33304;52.456;13.328;2022-07-23T12:53:04;4.90;;;2.05;;
47575;SDS011;33304;52.456;13.328;2022-07-23T12:55:33;6.22;;;2.03;;
47575;SDS011;33304;52.456;13.328;2022-07-23T12:58:06;4.25;;;2.42;;
47575;SDS011;33304;52.456;13.328;2022-07-23T13:00:49;5.85;;;2.55;;
47575;SDS011;33304;52.456;13.328;2022-07-23T13:03:29;3.08;;;2.17;;
47575;SDS011;33304;52.456;13.328;2022-07-23T13:05:58;3.20;;;1.85;;
47575;SDS011;33304;52.456;13.328;2022-07-23T13:08:26;1.92;;;1.60;;
47575;SDS011;33304;52.456;13.328;2022-07-23T13:10:55;2.53;;;1.95;;
47575;SDS011;33304;52.456;13.328;2022-07-23T13:13:25;2.67;;;1.65;;
47575;SDS011;33304;52.456;13.328;2022-07-23T13:15:53;3.47;;;2.28;;
47575;SDS011;33304;52.456;13.328;2022-07-23T13:18:21;3.75;;;1.90;;
47575;SDS011;33304;52.456;13.328;2022-07-23T13:20:49;5.30;;;2.20;;
47575;SDS011;33304;52.456;13.328;2022-07-23T13:23:16;2.70;;;1.95;;
47575;SDS011;33304;52.456;13.328;2022-07-23T13:25:44;3.10;;;1.90;;
47575;SDS011;33304;52.456;13.328;2022-07-23T13:28:12;2.83;;;1.90;;
47575;SDS011;33304;52.456;13.328;2022-07-23T13:30:42;2.67;;;1.90;;
47575;SDS011;33304;52.456;13.328;2022-07-23T13:33:10;3.65;;;2.33;;
47575;SDS011;33304;52.456;13.328;2022-07-23T13:35:38;3.45;;;1.92;;
47575;SDS011;33304;52.456;13.328;2022-07-23T13:38:05;3.60;;;2.38;;
47575;SDS011;33304;52.456;13.328;2022-07-23T13:40:34;2.63;;;2.05;;
47575;SDS011;33304;52.456;13.328;2022-07-23T13:43:04;3.47;;;2.17;;
47575;SDS011;33304;52.456;13.328;2022-07-23T13:45:32;3.22;;;1.90;;
47575;SDS011;33304;52.456;13.328;2022-07-23T13:48:01;7.32;;;1.85;;
47575;SDS011;33304;52.456;13.328;2022-07-23T13:50:29;2.35;;;1.85;;
47575;SDS011;33304;52.456;13.328;2022-07-23T13:52:56;3.20;;;2.03;;
47575;SDS011;33304;52.456;13.328;2022-07-23T13:55:23;3.53;;;1.75;;
47575;SDS011;33304;52.456;13.328;2022-07-23T13:57:51;3.85;;;1.73;;
47575;SDS011;33304;52.456;13.328;2022-07-23T14:00:18;4.18;;;2.20;;
47575;SDS011;33304;52.456;13.328;2022-07-23T14:02:45;4.88;;;1.98;;
47575;SDS011;33304;52.456;13.328;2022-07-23T14:05:14;3.13;;;1.55;;
47575;SDS011;33304;52.456;13.328;2022-07-23T14:07:41;2.28;;;1.83;;
47575;SDS011;33304;52.456;13.328;2022-07-23T14:10:10;3.55;;;1.63;;
47575;SDS011;33304;52.456;13.328;2022-07-23T14:12:37;3.90;;;1.90;;
47575;SDS011;33304;52.456;13.328;2022-07-23T14:15:05;5.25;;;2.53;;
47575;SDS011;33304;52.456;13.328;2022-07-23T14:17:34;2.10;;;1.88;;
47575;SDS011;33304;52.456;13.328;2022-07-23T14:20:03;3.28;;;1.92;;
47575;SDS011;33304;52.456;13.328;2022-07-23T14:22:33;4.20;;;1.58;;
47575;SDS011;33304;52.456;13.328;2022-07-23T14:25:01;3.28;;;1.80;;
47575;SDS011;33304;52.456;13.328;2022-07-23T14:27:28;1.40;;;1.27;;
47575;SDS011;33304;52.456;13.328;2022-07-23T14:29:56;3.55;;;2.08;;
47575;SDS011;33304;52.456;13.328;2022-07-23T14:32:23;1.40;;;1.23;;
47575;SDS011;33304;52.456;13.328;2022-07-23T14:34:51;3.13;;;1.40;;
47575;SDS011;33304;52.456;13.328;2022-07-23T14:37:18;4.53;;;1.40;;
47575;SDS011;33304;52.456;13.328;2022-07-23T14:39:47;1.90;;;1.30;;
47575;SDS011;33304;52.456;13.328;2022-07-23T14:42:14;1.45;;;1.30;;
47575;SDS011;33304;52.456;13.328;2022-07-23T14:44:41;3.30;;;1.40;;
47575;SDS011;33304;52.456;13.328;2022-07-23T14:47:08;1.70;;;1.38;;
47575;SDS011;33304;52.456;13.328;2022-07-23T14:49:36;2.80;;;1.50;;
47575;SDS011;33304;52.456;13.328;2022-07-23T14:52:04;1.67;;;1.20;;
47575;SDS011;33304;52.456;13.328;2022-07-23T14:54:32;2.65;;;1.48;;
47575;SDS011;33304;52.456;13.328;2022-07-23T14:57:01;2.42;;;1.08;;
47575;SDS011;33304;52.456;13.328;2022-07-23T14:59:29;1.25;;;1.00;;